createdAt,value
2019-01-25T00:01:05.012Z,42.03
2019-01-25T00:04:06.135Z,44.33
2019-01-25T00:06:54.708Z,45.40
2019-01-25T00:09:58.746Z,45.50
2019-01-25T00:12:58.144Z,44.87
2019-01-25T00:15:58.788Z,44.33
2019-01-25T00:18:59.130Z,43.43
2019-01-25T00:21:59.762Z,44.83
2019-01-25T00:25:00.309Z,48.03
2019-01-25T00:28:00.710Z,44.50
2019-01-25T00:31:01.900Z,45.57
2019-01-25T00:34:02.297Z,42.77
2019-01-25T00:37:02.813Z,44.00
2019-01-25T00:40:06.313Z,45.87
2019-01-25T00:43:05.889Z,46.27
2019-01-25T00:46:06.508Z,46.13
2019-01-25T00:49:07.160Z,44.93
2019-01-25T00:52:07.649Z,47.50
2019-01-25T00:55:07.975Z,46.47
2019-01-25T00:58:08.815Z,41.60
2019-01-25T01:01:09.604Z,48.77
2019-01-25T01:04:10.912Z,46.07
2019-01-25T01:06:59.810Z,50.97
2019-01-25T01:13:34.812Z,41.53
2019-01-25T01:16:35.549Z,42.23
2019-01-25T01:19:36.162Z,41.03
2019-01-25T01:22:36.693Z,39.93
2019-01-25T01:25:37.146Z,45.03
2019-01-25T01:28:38.022Z,43.13
2019-01-25T01:31:38.581Z,42.10
2019-01-25T01:34:39.196Z,45.53
2019-01-25T01:37:39.876Z,39.37
2019-01-25T01:40:40.309Z,40.00
2019-01-25T01:43:41.088Z,41.63
2019-01-25T01:46:41.760Z,44.57
2019-01-25T01:49:42.247Z,40.60
2019-01-25T01:52:42.571Z,39.43
2019-01-25T01:55:42.938Z,41.73
2019-01-25T01:58:43.358Z,41.60
2019-01-25T02:01:43.624Z,41.67
2019-01-25T02:04:43.920Z,42.07
2019-01-25T02:07:44.749Z,46.30
2019-01-25T02:10:45.588Z,39.77
2019-01-25T02:13:46.302Z,40.33
2019-01-25T02:16:47.177Z,43.10
2019-01-25T02:19:47.872Z,45.17
2019-01-25T02:22:48.241Z,43.60
2019-01-25T02:25:48.843Z,42.60
2019-01-25T02:28:49.365Z,41.93
2019-01-25T02:31:49.736Z,42.33
2019-01-25T02:34:50.112Z,41.57
2019-01-25T02:37:50.621Z,42.13
2019-01-25T02:40:51.122Z,40.43
2019-01-25T02:43:51.477Z,51.00
2019-01-25T02:46:52.113Z,42.13
2019-01-25T02:49:52.628Z,41.77
2019-01-25T02:52:53.418Z,43.53
2019-01-25T02:55:53.965Z,43.00
2019-01-25T02:58:54.785Z,42.73
2019-01-25T03:01:55.178Z,41.47
2019-01-25T03:04:55.484Z,39.73
2019-01-25T03:07:56.156Z,42.23
2019-01-25T03:10:56.952Z,45.10
2019-01-25T03:13:57.569Z,36.47
2019-01-25T03:16:58.117Z,42.00
2019-01-25T03:19:58.520Z,42.53
2019-01-25T03:22:59.054Z,41.33
2019-01-25T03:26:00.244Z,34.80
2019-01-25T03:29:01.520Z,39.43
2019-01-25T03:32:01.824Z,35.63
2019-01-25T03:35:02.265Z,41.20
2019-01-25T03:38:03.358Z,39.50
2019-01-25T03:41:04.064Z,41.07
2019-01-25T03:44:04.753Z,39.73
2019-01-25T03:47:05.229Z,38.67
2019-01-25T03:50:05.763Z,41.90
2019-01-25T03:53:06.106Z,37.67
2019-01-25T03:56:06.335Z,37.70
2019-01-25T03:59:07.234Z,41.47
2019-01-25T04:02:08.039Z,39.73
2019-01-25T04:05:08.264Z,41.93
2019-01-25T04:08:08.877Z,49.53
2019-01-25T04:11:09.110Z,41.90
2019-01-25T04:14:09.436Z,44.50
2019-01-25T04:17:10.546Z,41.47
2019-01-25T04:20:10.825Z,45.87
2019-01-25T04:23:11.430Z,49.10
2019-01-25T04:26:12.547Z,48.27
2019-01-25T04:29:13.387Z,49.47
2019-01-25T04:32:14.215Z,45.60
2019-01-25T04:35:14.686Z,48.93
2019-01-25T04:38:15.148Z,51.00
2019-01-25T04:41:16.091Z,48.73
2019-01-25T04:44:16.465Z,48.10
2019-01-25T04:47:18.432Z,49.60
2019-01-25T04:50:19.301Z,47.17
2019-01-25T04:53:20.127Z,51.50
2019-01-25T04:56:20.652Z,47.23
2019-01-25T04:59:21.798Z,49.73
2019-01-25T05:02:23.079Z,49.70
2019-01-25T05:05:23.551Z,46.20
2019-01-25T05:08:23.903Z,45.93
2019-01-25T05:11:24.444Z,42.63
2019-01-25T05:14:24.753Z,44.47
2019-01-25T05:17:25.965Z,46.30
2019-01-25T05:20:27.222Z,48.37
2019-01-25T05:23:27.792Z,44.30
2019-01-25T05:26:28.112Z,46.03
2019-01-25T05:29:28.429Z,49.50
2019-01-25T05:32:28.862Z,50.50
2019-01-25T05:35:31.009Z,49.33
2019-01-25T05:38:31.849Z,52.83
2019-01-25T05:41:32.503Z,50.10
2019-01-25T05:44:32.979Z,50.10
2019-01-25T05:47:33.289Z,49.47
2019-01-25T05:50:33.638Z,45.53
2019-01-25T05:53:34.429Z,49.47
2019-01-25T05:56:23.244Z,45.53
2019-01-25T05:59:31.117Z,44.67
2019-01-25T06:02:32.151Z,48.50
2019-01-25T06:05:33.346Z,49.83
2019-01-25T06:08:34.109Z,48.57
2019-01-25T06:11:35.584Z,47.63
2019-01-25T06:14:24.370Z,51.03
2019-01-25T06:17:32.202Z,55.87
2019-01-25T06:20:32.562Z,45.87
2019-01-25T06:23:33.528Z,48.00
2019-01-25T06:26:34.673Z,53.70
2019-01-25T06:29:35.505Z,49.40
2019-01-25T06:32:35.747Z,46.77
2019-01-25T06:35:36.217Z,48.77
2019-01-25T06:38:36.436Z,47.17
2019-01-25T06:41:43.808Z,48.60
2019-01-25T06:44:27.215Z,46.97
2019-01-25T06:47:35.137Z,50.50
2019-01-25T06:50:36.286Z,44.37
2019-01-25T06:53:37.006Z,45.87
2019-01-25T06:56:37.586Z,43.50
2019-01-25T06:59:38.432Z,42.87
2019-01-25T07:02:38.862Z,44.57
2019-01-25T07:05:39.479Z,50.90
2019-01-25T07:08:39.986Z,46.57
2019-01-25T07:11:42.265Z,47.43
2019-01-25T07:14:42.880Z,45.17
2019-01-25T07:17:43.416Z,44.93
2019-01-25T07:20:43.679Z,50.23
2019-01-25T07:23:44.128Z,46.13
2019-01-25T07:26:44.653Z,47.27
2019-01-25T07:29:45.057Z,48.73
2019-01-25T07:32:52.896Z,53.47
2019-01-25T07:36:00.913Z,51.30
2019-01-25T07:39:29.512Z,47.63
2019-01-25T07:42:30.105Z,44.77
2019-01-25T07:45:30.645Z,48.73
2019-01-25T07:48:31.674Z,49.37
2019-01-25T07:51:32.095Z,44.33
2019-01-25T07:54:32.478Z,41.60
2019-01-25T07:57:32.973Z,42.17
2019-01-25T08:00:33.382Z,43.77
2019-01-25T08:03:34.559Z,38.10
2019-01-25T08:06:34.865Z,38.17
2019-01-25T08:09:35.486Z,37.47
2019-01-25T08:12:35.787Z,38.57
2019-01-25T08:15:36.100Z,42.40
2019-01-25T08:18:36.937Z,39.47
2019-01-25T08:21:38.193Z,35.77
2019-01-25T08:24:38.639Z,36.07
2019-01-25T08:27:39.808Z,34.47
2019-01-25T08:30:41.053Z,36.13
2019-01-25T08:33:42.200Z,33.00
2019-01-25T08:36:43.358Z,33.63
2019-01-25T08:39:44.069Z,33.50
2019-01-25T08:42:44.485Z,39.10
2019-01-25T08:45:45.266Z,35.53
2019-01-25T08:48:45.836Z,37.73
2019-01-25T08:51:46.056Z,37.70
2019-01-25T08:54:46.713Z,35.80
2019-01-25T08:57:47.025Z,37.40
2019-01-25T09:00:47.385Z,35.00
2019-01-25T09:03:47.701Z,37.47
2019-01-25T09:06:48.058Z,36.30
2019-01-25T09:09:48.445Z,37.13
2019-01-25T09:12:48.797Z,37.47
2019-01-25T09:15:49.638Z,34.57
2019-01-25T09:18:49.913Z,37.40
2019-01-25T09:21:50.205Z,36.93
2019-01-25T09:24:50.488Z,34.63
2019-01-25T09:27:50.832Z,36.50
2019-01-25T09:30:52.037Z,36.43
2019-01-25T09:33:52.734Z,32.87
2019-01-25T09:36:41.260Z,31.40
2019-01-25T09:39:49.114Z,33.10
2019-01-25T09:42:49.965Z,36.97
2019-01-25T09:45:50.300Z,32.37
2019-01-25T09:48:51.073Z,34.17
2019-01-25T09:51:51.446Z,35.93
2019-01-25T09:54:51.647Z,31.17
2019-01-25T09:57:52.081Z,30.43
2019-01-25T10:00:53.173Z,37.37
2019-01-25T10:03:54.108Z,28.67
2019-01-25T10:06:55.364Z,29.70
2019-01-25T10:09:44.123Z,33.37
2019-01-25T10:12:52.001Z,25.90
2019-01-25T10:15:52.974Z,27.17
2019-01-25T10:18:53.319Z,26.00
2019-01-25T10:21:53.584Z,25.23
2019-01-25T10:24:54.069Z,26.50
2019-01-25T10:27:54.599Z,25.13
2019-01-25T10:30:54.916Z,25.87
2019-01-25T10:33:55.532Z,28.57
2019-01-25T10:36:56.114Z,30.43
2019-01-25T10:39:56.703Z,38.47
2019-01-25T10:42:57.878Z,32.53
2019-01-25T10:45:58.501Z,27.53
2019-01-25T10:48:59.396Z,27.13
2019-01-25T10:51:48.149Z,29.77
2019-01-25T10:54:56.009Z,26.07
2019-01-25T10:57:57.401Z,28.93
2019-01-25T11:00:57.662Z,25.97
2019-01-25T11:03:58.602Z,22.30
2019-01-25T11:06:58.884Z,22.90
2019-01-25T11:09:59.465Z,21.47
2019-01-25T11:13:01.142Z,21.80
2019-01-25T11:15:50.037Z,23.17
2019-01-25T11:18:57.865Z,23.17
2019-01-25T11:21:59.962Z,23.50
2019-01-25T11:25:00.504Z,27.70
2019-01-25T11:28:00.826Z,27.47
2019-01-25T11:31:01.688Z,26.13
2019-01-25T11:34:02.118Z,24.83
2019-01-25T11:37:02.877Z,26.90
2019-01-25T11:40:03.531Z,23.23
2019-01-25T11:42:53.714Z,20.10
2019-01-25T11:46:01.929Z,21.60
2019-01-25T11:49:02.240Z,20.97
2019-01-25T11:52:02.697Z,21.30
2019-01-25T11:55:03.065Z,20.47
2019-01-25T11:58:03.468Z,21.73
2019-01-25T12:01:04.987Z,20.00
2019-01-25T12:04:05.437Z,19.43
2019-01-25T12:06:54.384Z,22.57
2019-01-25T12:09:54.964Z,21.50
2019-01-25T12:12:55.513Z,22.03
2019-01-25T12:15:55.965Z,23.90
2019-01-25T12:18:56.644Z,24.77
2019-01-25T12:21:57.663Z,26.27
2019-01-25T12:24:58.958Z,21.90
2019-01-25T12:27:59.397Z,22.70
2019-01-25T12:31:00.513Z,21.33
2019-01-25T12:34:02.905Z,21.87
2019-01-25T12:37:04.831Z,22.57
2019-01-25T12:40:06.478Z,19.57
2019-01-25T12:43:06.880Z,17.93
2019-01-25T12:46:07.221Z,17.60
2019-01-25T12:49:07.517Z,15.00
2019-01-25T12:52:08.471Z,16.33
2019-01-25T12:55:09.101Z,17.67
2019-01-25T12:58:10.384Z,11.47
2019-01-25T13:04:27.602Z,10.33
2019-01-25T13:07:28.398Z,9.77
2019-01-25T13:10:28.951Z,10.80
2019-01-25T13:13:31.686Z,10.93
2019-01-25T13:16:32.176Z,11.53
2019-01-25T13:19:32.905Z,8.97
2019-01-25T13:22:33.381Z,10.90
2019-01-25T13:25:34.721Z,11.43
2019-01-25T13:28:35.072Z,12.17
2019-01-25T13:31:35.430Z,10.20
2019-01-25T13:34:35.952Z,12.07
2019-01-25T13:37:37.165Z,11.10
2019-01-25T13:40:38.226Z,12.20
2019-01-25T13:43:39.322Z,14.10
2019-01-25T13:46:40.491Z,13.73
2019-01-25T13:49:41.105Z,13.57
2019-01-25T13:52:41.702Z,15.27
2019-01-25T13:55:42.774Z,12.70
2019-01-25T13:58:43.756Z,13.03
2019-01-25T14:01:45.018Z,13.57
2019-01-25T14:04:45.388Z,12.27
2019-01-25T14:07:45.834Z,15.97
2019-01-25T14:10:46.101Z,13.20
2019-01-25T14:13:46.956Z,13.57
2019-01-25T14:16:48.357Z,16.97
2019-01-25T14:19:48.785Z,16.87
2019-01-25T14:22:49.311Z,16.83
2019-01-25T14:25:50.445Z,14.70
2019-01-25T14:28:50.836Z,17.40
2019-01-25T14:31:51.235Z,17.87
2019-01-25T14:34:51.856Z,15.43
2019-01-25T14:37:52.610Z,17.43
2019-01-25T14:41:00.525Z,16.67
2019-01-25T14:44:08.449Z,18.07
2019-01-25T14:47:09.722Z,16.07
2019-01-25T14:50:10.466Z,15.17
2019-01-25T14:53:11.154Z,17.87
2019-01-25T14:56:11.650Z,15.10
2019-01-25T14:59:12.242Z,15.73
2019-01-25T15:02:12.846Z,16.03
2019-01-25T15:05:14.807Z,15.63
2019-01-25T15:08:15.523Z,18.13
2019-01-25T15:11:16.254Z,16.00
2019-01-25T15:14:16.570Z,17.40
2019-01-25T15:17:17.773Z,17.47
2019-01-25T15:20:18.025Z,19.77
2019-01-25T15:23:18.614Z,15.47
2019-01-25T15:26:19.173Z,20.60
2019-01-25T15:29:20.408Z,18.37
2019-01-25T15:32:20.984Z,16.07
2019-01-25T15:35:22.072Z,18.73
2019-01-25T15:38:23.231Z,15.77
2019-01-25T15:41:11.864Z,18.90
2019-01-25T15:44:19.816Z,16.83
2019-01-25T15:47:20.703Z,19.97
2019-01-25T15:50:21.648Z,17.00
2019-01-25T15:53:22.906Z,20.20
2019-01-25T15:56:11.545Z,18.03
2019-01-25T15:59:19.427Z,20.27
2019-01-25T16:02:20.526Z,22.50
2019-01-25T16:05:21.266Z,19.80
2019-01-25T16:08:21.689Z,19.57
2019-01-25T16:11:22.298Z,20.00
2019-01-25T16:14:23.055Z,21.63
2019-01-25T16:17:23.475Z,18.30
2019-01-25T16:20:24.017Z,21.97
2019-01-25T16:23:12.777Z,17.63
2019-01-25T16:26:20.643Z,19.47
2019-01-25T16:29:21.669Z,18.87
2019-01-25T16:32:22.194Z,19.10
2019-01-25T16:35:22.888Z,19.97
2019-01-25T16:38:23.465Z,20.30
2019-01-25T16:41:24.010Z,17.23
2019-01-25T16:44:25.756Z,19.47
2019-01-25T16:47:26.503Z,16.67
2019-01-25T16:50:27.022Z,16.70
2019-01-25T16:53:15.681Z,15.40
2019-01-25T16:56:23.680Z,16.07
2019-01-25T16:59:24.203Z,16.23
2019-01-25T17:02:24.878Z,17.30
2019-01-25T17:05:25.410Z,16.60
2019-01-25T17:08:26.017Z,15.93
2019-01-25T17:11:26.943Z,16.33
2019-01-25T17:14:15.599Z,14.50
2019-01-25T17:17:23.557Z,13.67
2019-01-25T17:20:24.349Z,11.00
2019-01-25T17:23:24.881Z,11.97
2019-01-25T17:26:25.478Z,12.57
2019-01-25T17:29:26.091Z,11.70
2019-01-25T17:32:27.108Z,11.83
2019-01-25T17:35:27.902Z,10.33
2019-01-25T17:38:28.747Z,9.03
2019-01-25T17:41:17.337Z,10.00
2019-01-25T17:47:32.954Z,10.70
2019-01-25T17:50:33.665Z,12.67
2019-01-25T17:53:34.416Z,12.03
2019-01-25T17:56:34.946Z,12.67
2019-01-25T17:59:35.917Z,10.40
2019-01-25T18:02:36.624Z,12.87
2019-01-25T18:05:37.474Z,12.17
2019-01-25T18:08:38.241Z,13.17
2019-01-25T18:11:39.463Z,15.30
2019-01-25T18:14:40.321Z,12.53
2019-01-25T18:17:40.782Z,13.57
2019-01-25T18:20:41.447Z,16.07
2019-01-25T18:23:41.898Z,17.30
2019-01-25T18:26:42.463Z,13.87
2019-01-25T18:29:43.546Z,14.90
2019-01-25T18:32:44.103Z,18.07
2019-01-25T18:35:44.775Z,37.77
2019-01-25T18:38:45.204Z,14.77
2019-01-25T18:41:45.708Z,16.23
2019-01-25T18:44:46.436Z,15.93
2019-01-25T18:47:46.719Z,16.67
2019-01-25T18:50:47.046Z,13.93
2019-01-25T18:53:47.894Z,13.97
2019-01-25T18:56:48.860Z,13.20
2019-01-25T18:59:49.315Z,17.07
2019-01-25T19:02:49.741Z,24.17
2019-01-25T19:05:50.159Z,14.77
2019-01-25T19:08:50.662Z,19.37
2019-01-25T19:11:51.694Z,14.00
2019-01-25T19:14:52.418Z,12.80
2019-01-25T19:17:53.550Z,10.07
2019-01-25T19:20:53.977Z,9.53
2019-01-25T19:23:55.133Z,10.93
2019-01-25T19:26:56.191Z,9.90
2019-01-25T19:29:56.798Z,10.73
2019-01-25T19:32:57.568Z,12.37
2019-01-25T19:35:58.310Z,10.77
2019-01-25T19:38:59.067Z,6.37
2019-01-25T19:41:59.332Z,7.03
2019-01-25T19:45:00.296Z,8.17
2019-01-25T19:48:01.397Z,5.70
2019-01-25T19:51:02.199Z,5.30
2019-01-25T19:54:02.671Z,5.40
2019-01-25T19:57:03.234Z,6.27
2019-01-25T20:00:03.767Z,6.43
2019-01-25T20:03:04.893Z,5.60
2019-01-25T20:06:05.450Z,6.50
2019-01-25T20:09:05.991Z,6.10
2019-01-25T20:12:06.698Z,8.43
2019-01-25T20:15:07.352Z,6.70
2019-01-25T20:18:07.967Z,5.87
2019-01-25T20:21:08.337Z,7.27
2019-01-25T20:24:08.798Z,4.97
2019-01-25T20:27:09.866Z,4.83
2019-01-25T20:30:10.338Z,6.53
2019-01-25T20:33:11.340Z,4.37
2019-01-25T20:36:12.455Z,5.50
2019-01-25T20:39:13.137Z,5.37
2019-01-25T20:42:14.292Z,5.03
2019-01-25T20:45:14.798Z,6.10
2019-01-25T20:48:15.353Z,6.70
2019-01-25T20:51:16.345Z,5.87
2019-01-25T20:54:16.992Z,7.80
2019-01-25T20:57:17.433Z,4.63
2019-01-25T21:00:17.982Z,5.50
2019-01-25T21:03:18.626Z,5.70
2019-01-25T21:06:19.576Z,5.87
2019-01-25T21:09:22.898Z,11.70
2019-01-25T21:12:23.470Z,11.80
2019-01-25T21:15:34.846Z,8.87
2019-01-25T21:18:30.227Z,25.10
2019-01-25T21:21:31.395Z,7.37
2019-01-25T21:24:31.746Z,5.90
2019-01-25T21:27:32.565Z,19.00
2019-01-25T21:30:33.239Z,41.17
2019-01-25T21:33:33.731Z,11.27
2019-01-25T21:36:34.196Z,26.67
2019-01-25T21:39:35.430Z,13.33
2019-01-25T21:42:36.316Z,13.37
2019-01-25T21:45:43.012Z,16.00
2019-01-25T21:48:39.410Z,7.43
2019-01-25T21:51:39.982Z,5.73
2019-01-25T21:54:40.682Z,7.20
2019-01-25T21:57:41.353Z,6.07
2019-01-25T22:00:41.985Z,5.07
2019-01-25T22:03:42.774Z,5.27
2019-01-25T22:06:44.022Z,4.60
2019-01-25T22:09:44.445Z,4.40
2019-01-25T22:12:45.011Z,4.27
2019-01-25T22:15:50.768Z,4.97
2019-01-25T22:18:48.528Z,5.27
2019-01-25T22:21:49.053Z,6.10
2019-01-25T22:24:49.508Z,5.33
2019-01-25T22:27:50.574Z,4.13
2019-01-25T22:30:51.316Z,4.77
2019-01-25T22:33:51.664Z,4.90
2019-01-25T22:36:52.061Z,4.67
2019-01-25T22:39:52.565Z,4.23
2019-01-25T22:42:53.631Z,3.80
2019-01-25T22:45:58.524Z,3.50
2019-01-25T22:48:56.620Z,4.83
2019-01-25T22:51:56.985Z,4.30
2019-01-25T22:54:57.807Z,4.03
2019-01-25T22:57:58.538Z,4.77
2019-01-25T23:01:00.107Z,4.20
2019-01-25T23:04:01.080Z,3.97
2019-01-25T23:07:01.733Z,4.07
2019-01-25T23:09:50.455Z,4.67
2019-01-25T23:12:51.164Z,3.83
2019-01-25T23:15:51.582Z,4.40
2019-01-25T23:18:51.951Z,5.03
2019-01-25T23:21:52.398Z,4.07
2019-01-25T23:24:52.957Z,7.50
2019-01-25T23:27:53.329Z,4.03
2019-01-25T23:30:53.703Z,4.97
2019-01-25T23:33:54.559Z,4.47
2019-01-25T23:36:55.116Z,4.07
2019-01-25T23:39:56.331Z,4.27
2019-01-25T23:42:57.634Z,3.37
2019-01-25T23:45:58.105Z,3.37
2019-01-25T23:48:58.626Z,3.53
2019-01-25T23:51:59.214Z,3.50
2019-01-25T23:54:59.660Z,3.43
2019-01-25T23:58:00.134Z,3.27
